Time;durP1;ratioP1;P1;durP2;ratioP2;P2;SDS_P1;SDS_P2;PMS_P1;PMS_P2;Temp;Humidity;BMP_temperature;BMP_pressure;BME280_temperature;BME280_humidity;BME280_pressure;Samples;Min_cycle;Max_cycle;Signal;HPM_P1;HPM_P2
2023/04/23 00:01:15;;;;;;;8.30;4.40;;;;;;;;;;5052471;28;20045;-71
2023/04/23 00:03:44;;;;;;;7.32;4.28;;;;;;;;;;5035065;28;20049;-70
2023/04/23 00:06:12;;;;;;;6.07;4.10;;;;;;;;;;5035068;28;20053;-70
2023/04/23 00:08:40;;;;;;;6.50;4.28;;;;;;;;;;5034819;28;20053;-70
2023/04/23 00:11:08;;;;;;;5.30;3.17;;;;;;;;;;5035126;28;20422;-70
2023/04/23 00:13:35;;;;;;;6.15;3.83;;;;;;;;;;5034882;28;20053;-70
2023/04/23 00:16:03;;;;;;;5.60;3.60;;;;;;;;;;5034640;28;20422;-70
2023/04/23 00:18:30;;;;;;;5.20;3.78;;;;;;;;;;5034870;28;20050;-70
2023/04/23 00:20:58;;;;;;;7.30;3.65;;;;;;;;;;5034741;28;20387;-70
2023/04/23 00:23:25;;;;;;;5.93;3.42;;;;;;;;;;5034669;28;20060;-70
2023/04/23 00:25:52;;;;;;;5.00;3.38;;;;;;;;;;5034662;28;20045;-70
2023/04/23 00:28:19;;;;;;;7.80;3.70;;;;;;;;;;5034567;28;20081;-70
2023/04/23 00:30:46;;;;;;;5.70;3.35;;;;;;;;;;5034555;28;20115;-70
2023/04/23 00:33:13;;;;;;;4.60;3.20;;;;;;;;;;5035007;28;20123;-70
2023/04/23 00:35:40;;;;;;;5.95;3.67;;;;;;;;;;5034408;28;20053;-70
2023/04/23 00:38:08;;;;;;;5.68;3.55;;;;;;;;;;5034524;28;20052;-70
2023/04/23 00:40:36;;;;;;;5.68;3.25;;;;;;;;;;5034498;28;20112;-71
2023/04/23 00:43:03;;;;;;;5.47;3.35;;;;;;;;;;5034496;28;20045;-70
2023/04/23 00:45:30;;;;;;;9.32;4.40;;;;;;;;;;5034371;28;20045;-70
2023/04/23 00:47:58;;;;;;;5.88;3.35;;;;;;;;;;5034713;28;20510;-70
2023/04/23 00:50:25;;;;;;;6.85;3.40;;;;;;;;;;5034400;28;20495;-70
2023/04/23 00:52:52;;;;;;;5.90;3.50;;;;;;;;;;5034417;28;20046;-70
2023/04/23 00:55:20;;;;;;;5.35;3.42;;;;;;;;;;5033952;28;20458;-70
2023/04/23 00:57:48;;;;;;;7.53;4.60;;;;;;;;;;5032972;28;20404;-70
2023/04/23 01:00:16;;;;;;;5.78;3.47;;;;;;;;;;5034022;28;20556;-70
2023/04/23 01:02:44;;;;;;;6.15;3.85;;;;;;;;;;5059657;22;20041;-66
2023/04/23 01:05:13;;;;;;;5.00;3.05;;;;;;;;;;5054043;28;20055;-66
2023/04/23 01:07:40;;;;;;;4.95;3.17;;;;;;;;;;5054112;28;20079;-66
2023/04/23 01:10:09;;;;;;;6.45;3.53;;;;;;;;;;5054274;28;20463;-65
2023/04/23 01:12:38;;;;;;;6.28;4.18;;;;;;;;;;5054392;28;20509;-66
2023/04/23 01:15:06;;;;;;;6.15;4.07;;;;;;;;;;5054060;28;20049;-65
2023/04/23 01:17:34;;;;;;;6.20;3.85;;;;;;;;;;5054208;28;20064;-65
2023/04/23 01:20:00;;;;;;;5.28;3.53;;;;;;;;;;5054485;28;20051;-66
2023/04/23 01:22:29;;;;;;;5.43;3.70;;;;;;;;;;5054101;28;20057;-66
2023/04/23 01:24:56;;;;;;;6.68;4.45;;;;;;;;;;5053922;28;20110;-65
2023/04/23 01:27:23;;;;;;;7.47;4.68;;;;;;;;;;5053971;28;20053;-65
2023/04/23 01:29:50;;;;;;;5.97;4.80;;;;;;;;;;5054336;28;20413;-65
2023/04/23 01:32:17;;;;;;;8.35;4.75;;;;;;;;;;5053901;28;20049;-65
2023/04/23 01:34:47;;;;;;;7.28;5.53;;;;;;;;;;5053564;28;20135;-66
2023/04/23 01:37:15;;;;;;;6.60;4.93;;;;;;;;;;5053836;28;20060;-65
2023/04/23 01:39:43;;;;;;;7.40;5.18;;;;;;;;;;5053448;28;20052;-66
2023/04/23 01:42:58;;;;;;;8.63;6.10;;;;;;;;;;5053922;28;20061;-66
2023/04/23 01:45:25;;;;;;;8.73;6.68;;;;;;;;;;5051584;28;20076;-66
2023/04/23 01:47:52;;;;;;;7.57;5.47;;;;;;;;;;5053749;28;20471;-65
2023/04/23 01:50:20;;;;;;;9.18;6.03;;;;;;;;;;5053446;28;20045;-65
2023/04/23 01:52:47;;;;;;;6.25;4.55;;;;;;;;;;5053576;28;20089;-66
2023/04/23 01:55:17;;;;;;;7.40;3.83;;;;;;;;;;5053694;28;20045;-65
2023/04/23 01:57:44;;;;;;;5.45;3.80;;;;;;;;;;5053273;28;20057;-66
2023/04/23 02:00:13;;;;;;;5.38;3.80;;;;;;;;;;5053117;28;20059;-66
2023/04/23 02:02:42;;;;;;;6.57;4.03;;;;;;;;;;5053091;28;20110;-66
2023/04/23 02:05:11;;;;;;;5.38;3.85;;;;;;;;;;5052889;28;20482;-65
2023/04/23 02:07:38;;;;;;;5.60;3.42;;;;;;;;;;5053111;28;20495;-65
2023/04/23 02:10:06;;;;;;;5.72;3.53;;;;;;;;;;5053121;28;20109;-65
2023/04/23 02:12:34;;;;;;;4.97;3.45;;;;;;;;;;5053659;28;20456;-65
2023/04/23 02:15:01;;;;;;;6.88;3.80;;;;;;;;;;5053269;28;20190;-65
2023/04/23 02:17:28;;;;;;;7.00;3.97;;;;;;;;;;5053125;28;20135;-65
2023/04/23 02:19:55;;;;;;;7.35;4.70;;;;;;;;;;5053212;28;20056;-67
2023/04/23 02:22:24;;;;;;;8.30;5.03;;;;;;;;;;5053221;28;20059;-67
2023/04/23 02:24:51;;;;;;;7.40;5.70;;;;;;;;;;5053481;28;20099;-67
2023/04/23 02:27:18;;;;;;;8.45;6.95;;;;;;;;;;5053144;28;20099;-66
2023/04/23 02:29:47;;;;;;;10.82;7.40;;;;;;;;;;5053096;28;20053;-67
2023/04/23 02:32:13;;;;;;;8.80;5.82;;;;;;;;;;5052987;28;20084;-66
2023/04/23 02:34:40;;;;;;;7.38;4.68;;;;;;;;;;5053459;28;20520;-67
2023/04/23 02:37:07;;;;;;;5.65;4.05;;;;;;;;;;5053245;28;20088;-66
2023/04/23 02:39:34;;;;;;;5.50;3.97;;;;;;;;;;5052756;28;20052;-66
2023/04/23 02:42:01;;;;;;;7.35;4.22;;;;;;;;;;5053058;28;20064;-66
2023/04/23 02:44:27;;;;;;;5.57;4.00;;;;;;;;;;5053345;28;20053;-66
2023/04/23 02:46:56;;;;;;;6.05;3.90;;;;;;;;;;5053119;28;20053;-66
2023/04/23 02:49:22;;;;;;;6.93;4.85;;;;;;;;;;5052910;28;20048;-66
2023/04/23 02:51:49;;;;;;;6.95;4.57;;;;;;;;;;5052893;28;20508;-66
2023/04/23 02:54:16;;;;;;;5.05;3.63;;;;;;;;;;5053011;28;20057;-66
2023/04/23 02:56:43;;;;;;;6.82;4.20;;;;;;;;;;5053089;28;20183;-66
2023/04/23 02:59:10;;;;;;;6.95;4.13;;;;;;;;;;5053249;28;20053;-66
2023/04/23 03:01:37;;;;;;;6.38;3.90;;;;;;;;;;5052836;28;20433;-65
2023/04/23 03:04:05;;;;;;;5.63;3.83;;;;;;;;;;5053315;28;20081;-65
2023/04/23 03:06:33;;;;;;;5.57;4.10;;;;;;;;;;5052693;28;20048;-65
2023/04/23 03:09:00;;;;;;;5.97;3.78;;;;;;;;;;5053045;28;20139;-65
2023/04/23 03:11:26;;;;;;;5.75;3.75;;;;;;;;;;5052630;28;20055;-65
2023/04/23 03:13:53;;;;;;;6.55;3.80;;;;;;;;;;5052971;28;20102;-65
2023/04/23 03:16:20;;;;;;;7.55;3.90;;;;;;;;;;5052551;28;20099;-66
2023/04/23 03:18:47;;;;;;;7.07;3.80;;;;;;;;;;5052944;28;20049;-66
2023/04/23 03:21:15;;;;;;;5.88;3.28;;;;;;;;;;5051956;28;20049;-65
2023/04/23 03:23:42;;;;;;;6.20;3.97;;;;;;;;;;5052686;28;20505;-65
2023/04/23 03:26:09;;;;;;;7.03;3.95;;;;;;;;;;5052326;28;20057;-65
2023/04/23 03:28:36;;;;;;;7.70;4.68;;;;;;;;;;5052507;28;20103;-65
2023/04/23 03:31:03;;;;;;;6.85;4.25;;;;;;;;;;5052440;28;20417;-65
2023/04/23 03:33:29;;;;;;;5.88;4.15;;;;;;;;;;5052429;28;20099;-66
2023/04/23 03:35:56;;;;;;;6.55;3.78;;;;;;;;;;5052648;28;20094;-65
2023/04/23 03:38:24;;;;;;;6.28;4.32;;;;;;;;;;5052637;28;20056;-65
2023/04/23 03:40:51;;;;;;;5.65;3.70;;;;;;;;;;5052351;28;20078;-65
2023/04/23 03:43:18;;;;;;;6.20;3.75;;;;;;;;;;5052393;28;20053;-65
2023/04/23 03:45:45;;;;;;;6.00;4.25;;;;;;;;;;5052302;28;20147;-65
2023/04/23 03:48:12;;;;;;;7.65;4.30;;;;;;;;;;5052286;28;20088;-65
2023/04/23 03:50:39;;;;;;;5.97;4.15;;;;;;;;;;5052246;28;20061;-65
2023/04/23 03:53:06;;;;;;;6.10;3.83;;;;;;;;;;5052574;28;20092;-65
2023/04/23 03:55:35;;;;;;;5.32;3.45;;;;;;;;;;5052215;28;20052;-66
2023/04/23 03:58:03;;;;;;;5.63;3.60;;;;;;;;;;5052691;28;20486;-66
2023/04/23 04:00:29;;;;;;;6.13;4.95;;;;;;;;;;5052272;28;20057;-66
2023/04/23 04:02:56;;;;;;;6.13;3.97;;;;;;;;;;5052131;28;20049;-67
2023/04/23 04:05:23;;;;;;;6.20;3.92;;;;;;;;;;5052694;28;20056;-65
2023/04/23 04:07:50;;;;;;;7.57;4.20;;;;;;;;;;5052279;28;20049;-65
2023/04/23 04:10:17;;;;;;;7.03;4.22;;;;;;;;;;5052351;28;20049;-66
2023/04/23 04:12:46;;;;;;;6.45;4.18;;;;;;;;;;5052273;28;20207;-65
2023/04/23 04:15:13;;;;;;;6.25;4.50;;;;;;;;;;5052199;28;20156;-66
2023/04/23 04:17:40;;;;;;;8.63;5.03;;;;;;;;;;5052335;28;20098;-65
2023/04/23 04:20:08;;;;;;;6.00;4.07;;;;;;;;;;5052409;28;20140;-65
2023/04/23 04:22:35;;;;;;;7.15;4.97;;;;;;;;;;5053153;28;20075;-65
2023/04/23 04:25:01;;;;;;;8.00;4.90;;;;;;;;;;5052609;28;20487;-66
2023/04/23 04:27:28;;;;;;;6.10;4.20;;;;;;;;;;5052593;28;20049;-65
2023/04/23 04:29:56;;;;;;;6.95;4.45;;;;;;;;;;5052743;28;20167;-66
2023/04/23 04:32:23;;;;;;;6.80;4.57;;;;;;;;;;5052969;28;20272;-66
2023/04/23 04:34:51;;;;;;;6.63;4.72;;;;;;;;;;5056010;28;20053;-66
2023/04/23 04:37:19;;;;;;;6.13;3.90;;;;;;;;;;5056075;28;20045;-65
2023/04/23 04:39:46;;;;;;;5.45;4.10;;;;;;;;;;5055617;28;20099;-65
2023/04/23 04:42:13;;;;;;;7.70;4.95;;;;;;;;;;5055944;28;20076;-65
2023/04/23 04:44:40;;;;;;;7.18;4.78;;;;;;;;;;5056621;28;20049;-66
2023/04/23 04:47:08;;;;;;;7.57;4.95;;;;;;;;;;5055883;28;20056;-66
2023/04/23 04:49:36;;;;;;;7.03;4.63;;;;;;;;;;5055825;28;20055;-66
2023/04/23 04:52:02;;;;;;;7.05;4.72;;;;;;;;;;5055780;28;20052;-66
2023/04/23 04:54:29;;;;;;;6.80;4.75;;;;;;;;;;5055756;28;20083;-66
2023/04/23 04:56:56;;;;;;;7.05;4.90;;;;;;;;;;5055416;28;20084;-66
2023/04/23 04:59:23;;;;;;;7.47;4.75;;;;;;;;;;5055562;28;20126;-66
2023/04/23 05:01:50;;;;;;;8.50;4.85;;;;;;;;;;5055546;28;20409;-66
2023/04/23 05:04:18;;;;;;;6.80;4.85;;;;;;;;;;5055751;28;20052;-66
2023/04/23 05:06:45;;;;;;;7.30;4.90;;;;;;;;;;5055897;28;20049;-66
2023/04/23 05:09:11;;;;;;;8.05;5.05;;;;;;;;;;5055741;28;20084;-66
2023/04/23 05:11:39;;;;;;;6.75;4.95;;;;;;;;;;5055762;28;20079;-66
2023/04/23 05:14:07;;;;;;;6.53;4.35;;;;;;;;;;5056309;28;20052;-65
2023/04/23 05:16:34;;;;;;;7.57;4.95;;;;;;;;;;5055621;28;20053;-66
2023/04/23 05:19:01;;;;;;;7.60;4.78;;;;;;;;;;5055506;28;20049;-66
2023/04/23 05:21:30;;;;;;;7.13;4.72;;;;;;;;;;5055289;28;20098;-66
2023/04/23 05:23:57;;;;;;;7.32;5.05;;;;;;;;;;5055868;28;20452;-66
2023/04/23 05:26:23;;;;;;;8.10;4.70;;;;;;;;;;5056124;28;20056;-66
2023/04/23 05:28:50;;;;;;;7.43;4.47;;;;;;;;;;5055323;28;20464;-66
2023/04/23 05:31:17;;;;;;;6.40;4.55;;;;;;;;;;5055475;28;20091;-66
2023/04/23 05:33:45;;;;;;;8.13;4.82;;;;;;;;;;5055233;28;20057;-66
2023/04/23 05:36:12;;;;;;;8.02;4.90;;;;;;;;;;5055176;28;20057;-66
2023/04/23 05:38:40;;;;;;;6.10;4.40;;;;;;;;;;5055080;28;20110;-66
2023/04/23 05:41:07;;;;;;;8.18;5.13;;;;;;;;;;5055089;28;20528;-66
2023/04/23 05:43:34;;;;;;;8.95;5.80;;;;;;;;;;5054826;28;20490;-67
2023/04/23 05:46:03;;;;;;;7.00;5.00;;;;;;;;;;5054567;28;20057;-67
2023/04/23 05:48:29;;;;;;;7.45;4.70;;;;;;;;;;5054803;28;20559;-67
2023/04/23 05:50:56;;;;;;;10.75;5.45;;;;;;;;;;5054483;28;20083;-67
2023/04/23 05:53:23;;;;;;;8.90;5.00;;;;;;;;;;5054842;28;20056;-66
2023/04/23 05:55:51;;;;;;;6.70;4.53;;;;;;;;;;5053578;28;20041;-66
2023/04/23 05:58:18;;;;;;;8.13;5.10;;;;;;;;;;5054769;28;20048;-66
2023/04/23 06:00:45;;;;;;;8.10;4.97;;;;;;;;;;5054666;28;20563;-66
2023/04/23 06:03:11;;;;;;;6.28;4.05;;;;;;;;;;5054505;28;20106;-66
2023/04/23 06:05:38;;;;;;;7.20;5.18;;;;;;;;;;5054967;28;20087;-66
2023/04/23 06:08:05;;;;;;;7.95;5.18;;;;;;;;;;5054111;28;20103;-65
2023/04/23 06:10:32;;;;;;;9.85;5.80;;;;;;;;;;5053424;28;20442;-65
2023/04/23 06:13:00;;;;;;;9.73;5.43;;;;;;;;;;5053038;28;20453;-65
2023/04/23 06:15:27;;;;;;;9.13;5.88;;;;;;;;;;5053068;28;20049;-66
2023/04/23 06:17:54;;;;;;;8.50;5.20;;;;;;;;;;5052998;28;20559;-65
2023/04/23 06:20:21;;;;;;;10.02;6.00;;;;;;;;;;5052829;28;20491;-66
2023/04/23 06:22:47;;;;;;;8.82;5.07;;;;;;;;;;5052722;28;20056;-66
2023/04/23 06:25:14;;;;;;;7.95;5.65;;;;;;;;;;5052758;28;20114;-66
2023/04/23 06:27:41;;;;;;;8.27;5.88;;;;;;;;;;5052671;28;20052;-66
2023/04/23 06:30:10;;;;;;;9.13;5.95;;;;;;;;;;5052660;28;20124;-65
2023/04/23 06:32:37;;;;;;;9.48;5.30;;;;;;;;;;5052974;28;20091;-65
2023/04/23 06:35:04;;;;;;;9.55;5.97;;;;;;;;;;5052611;28;20110;-65
2023/04/23 06:37:31;;;;;;;9.43;6.38;;;;;;;;;;5053145;28;20179;-66
2023/04/23 06:39:59;;;;;;;9.35;6.47;;;;;;;;;;5052714;28;20045;-66
2023/04/23 06:42:26;;;;;;;9.13;6.18;;;;;;;;;;5052588;28;20140;-65
2023/04/23 06:44:53;;;;;;;10.90;6.50;;;;;;;;;;5052700;28;20053;-65
2023/04/23 06:47:21;;;;;;;10.38;6.00;;;;;;;;;;5052272;28;20049;-65
2023/04/23 06:49:47;;;;;;;8.30;5.55;;;;;;;;;;5052347;28;20053;-64
2023/04/23 06:52:14;;;;;;;8.02;5.00;;;;;;;;;;5052592;28;20075;-65
2023/04/23 06:54:41;;;;;;;8.48;5.53;;;;;;;;;;5051500;28;20049;-65
2023/04/23 06:57:08;;;;;;;8.02;5.22;;;;;;;;;;5052139;28;20110;-65
2023/04/23 06:59:34;;;;;;;8.75;6.15;;;;;;;;;;5052101;28;20315;-65
2023/04/23 07:02:01;;;;;;;7.95;5.90;;;;;;;;;;5043078;28;20050;-65
2023/04/23 07:04:37;;;;;;;8.55;5.28;;;;;;;;;;5055561;22;20072;-79
2023/04/23 07:07:03;;;;;;;9.48;6.20;;;;;;;;;;5038066;28;20110;-80
2023/04/23 07:09:30;;;;;;;8.85;5.60;;;;;;;;;;5037993;28;20049;-80
2023/04/23 07:11:57;;;;;;;8.27;5.50;;;;;;;;;;5037940;28;20045;-80
2023/04/23 07:14:23;;;;;;;8.25;5.53;;;;;;;;;;5037398;28;20153;-80
2023/04/23 07:16:51;;;;;;;7.93;5.53;;;;;;;;;;5037234;28;20045;-80
2023/04/23 07:19:17;;;;;;;8.70;5.60;;;;;;;;;;5036738;28;20076;-79
2023/04/23 07:21:45;;;;;;;8.20;5.35;;;;;;;;;;5037438;28;20049;-80
2023/04/23 07:24:12;;;;;;;7.88;5.07;;;;;;;;;;5036521;28;20105;-80
2023/04/23 07:26:38;;;;;;;8.68;5.32;;;;;;;;;;5037551;28;20132;-80
2023/04/23 07:29:16;;;;;;;7.55;5.28;;;;;;;;;;5037422;28;20056;-81
2023/04/23 07:31:43;;;;;;;7.72;4.95;;;;;;;;;;5037048;28;20488;-80
2023/04/23 07:34:10;;;;;;;10.15;5.55;;;;;;;;;;5037127;28;20412;-80
2023/04/23 07:36:37;;;;;;;7.03;5.35;;;;;;;;;;5036716;28;20049;-80
2023/04/23 07:39:05;;;;;;;9.75;6.55;;;;;;;;;;5036403;28;20084;-80
2023/04/23 07:41:31;;;;;;;8.82;6.03;;;;;;;;;;5037012;28;20581;-82
2023/04/23 07:43:58;;;;;;;11.50;7.22;;;;;;;;;;5036647;28;20105;-81
2023/04/23 07:46:24;;;;;;;10.60;6.28;;;;;;;;;;5036836;28;20050;-79
2023/04/23 07:48:51;;;;;;;9.75;7.30;;;;;;;;;;5036492;28;20056;-80
2023/04/23 07:51:18;;;;;;;9.15;5.40;;;;;;;;;;5035574;28;20057;-81
2023/04/23 07:53:47;;;;;;;8.02;5.68;;;;;;;;;;5035546;28;20080;-80
2023/04/23 07:56:16;;;;;;;9.80;5.68;;;;;;;;;;5035249;28;20049;-79
2023/04/23 07:58:42;;;;;;;7.15;5.50;;;;;;;;;;5035238;28;20046;-80
2023/04/23 08:01:09;;;;;;;12.10;5.85;;;;;;;;;;5036048;28;20041;-79
2023/04/23 08:03:36;;;;;;;7.43;4.93;;;;;;;;;;5034976;28;20053;-78
2023/04/23 08:06:03;;;;;;;6.97;4.55;;;;;;;;;;5035612;28;20069;-82
2023/04/23 08:08:30;;;;;;;7.97;5.70;;;;;;;;;;5038363;28;20056;-80
2023/04/23 08:10:57;;;;;;;7.05;4.80;;;;;;;;;;5039661;28;20046;-79
2023/04/23 08:13:25;;;;;;;11.88;5.57;;;;;;;;;;5038871;28;20124;-80
2023/04/23 08:15:51;;;;;;;7.45;4.90;;;;;;;;;;5038302;28;20075;-80
2023/04/23 08:18:18;;;;;;;7.95;5.07;;;;;;;;;;5038202;28;20053;-80
2023/04/23 08:20:45;;;;;;;9.38;6.25;;;;;;;;;;5038414;28;20494;-79
2023/04/23 08:23:11;;;;;;;8.75;5.90;;;;;;;;;;5038223;28;20046;-79
2023/04/23 08:25:38;;;;;;;7.57;5.43;;;;;;;;;;5037396;28;20105;-79
2023/04/23 08:28:04;;;;;;;10.68;6.32;;;;;;;;;;5037463;28;20045;-80
2023/04/23 08:30:32;;;;;;;8.77;5.47;;;;;;;;;;5038255;28;20124;-79
2023/04/23 08:32:59;;;;;;;10.57;6.93;;;;;;;;;;5038298;28;20088;-78
2023/04/23 08:35:26;;;;;;;9.30;5.50;;;;;;;;;;5037698;28;20141;-80
2023/04/23 08:37:52;;;;;;;8.73;5.25;;;;;;;;;;5037740;28;20049;-78
2023/04/23 08:40:19;;;;;;;6.22;3.90;;;;;;;;;;5038933;28;20105;-79
2023/04/23 08:42:50;;;;;;;7.95;4.78;;;;;;;;;;5039105;28;20049;-78
2023/04/23 08:45:17;;;;;;;7.35;4.25;;;;;;;;;;5038739;28;20045;-79
2023/04/23 08:47:45;;;;;;;6.15;3.70;;;;;;;;;;5039446;28;20053;-79
2023/04/23 08:50:13;;;;;;;5.32;3.70;;;;;;;;;;5040188;28;20076;-79
2023/04/23 08:52:41;;;;;;;6.03;3.67;;;;;;;;;;5040324;28;20107;-79
2023/04/23 08:55:13;;;;;;;7.60;3.80;;;;;;;;;;5048220;28;20457;-80
2023/04/23 08:57:41;;;;;;;5.63;4.10;;;;;;;;;;5038838;28;20064;-79
2023/04/23 09:00:10;;;;;;;6.65;3.80;;;;;;;;;;5038816;28;20049;-78
2023/04/23 09:02:37;;;;;;;5.18;3.63;;;;;;;;;;5038935;28;20095;-79
2023/04/23 09:05:07;;;;;;;6.22;3.80;;;;;;;;;;5038714;28;20046;-79
2023/04/23 09:07:34;;;;;;;6.43;4.15;;;;;;;;;;5037632;28;20169;-80
2023/04/23 09:10:01;;;;;;;7.03;4.15;;;;;;;;;;5036892;28;20056;-79
2023/04/23 09:12:28;;;;;;;6.47;4.30;;;;;;;;;;5036631;28;20082;-80
2023/04/23 09:14:55;;;;;;;6.20;3.97;;;;;;;;;;5036081;28;20128;-79
2023/04/23 09:17:23;;;;;;;7.70;4.22;;;;;;;;;;5037430;28;20201;-80
2023/04/23 09:19:51;;;;;;;5.20;3.78;;;;;;;;;;5040036;28;20057;-80
2023/04/23 09:22:38;;;;;;;6.43;3.92;;;;;;;;;;5037968;28;20053;-78
2023/04/23 09:25:06;;;;;;;5.65;3.67;;;;;;;;;;5037876;28;20549;-79
2023/04/23 09:27:33;;;;;;;6.05;3.42;;;;;;;;;;5040325;28;20113;-81
2023/04/23 09:30:03;;;;;;;6.15;3.80;;;;;;;;;;5039104;28;20052;-80
2023/04/23 09:32:32;;;;;;;6.20;4.03;;;;;;;;;;5039463;28;20060;-81
2023/04/23 09:34:59;;;;;;;5.13;3.75;;;;;;;;;;5037809;28;20503;-81
2023/04/23 09:37:26;;;;;;;5.50;3.45;;;;;;;;;;5038711;28;20087;-79
2023/04/23 09:39:55;;;;;;;6.25;3.28;;;;;;;;;;5038615;28;20105;-81
2023/04/23 09:42:23;;;;;;;5.47;3.30;;;;;;;;;;5038662;28;20042;-80
2023/04/23 09:44:56;;;;;;;4.80;3.10;;;;;;;;;;5038642;28;20060;-79
2023/04/23 09:47:23;;;;;;;6.95;3.33;;;;;;;;;;5038463;28;20143;-78
2023/04/23 09:49:50;;;;;;;5.55;3.03;;;;;;;;;;5038603;28;20133;-78
2023/04/23 09:52:18;;;;;;;7.10;3.85;;;;;;;;;;5037792;28;20048;-80
2023/04/23 09:54:46;;;;;;;6.05;3.28;;;;;;;;;;5036432;28;20053;-81
2023/04/23 09:57:14;;;;;;;6.00;3.40;;;;;;;;;;5037258;28;20407;-80
2023/04/23 09:59:41;;;;;;;6.05;3.75;;;;;;;;;;5036484;28;20144;-80
2023/04/23 10:02:08;;;;;;;4.72;3.20;;;;;;;;;;5026906;28;20480;-81
2023/04/23 10:04:35;;;;;;;6.68;3.80;;;;;;;;;;5016993;28;20042;-81
2023/04/23 10:07:05;;;;;;;5.43;3.42;;;;;;;;;;5017663;28;20124;-81
2023/04/23 10:09:31;;;;;;;5.88;4.05;;;;;;;;;;5017016;28;20050;-80
2023/04/23 10:12:01;;;;;;;6.75;3.90;;;;;;;;;;5016852;28;20049;-82
2023/04/23 10:14:29;;;;;;;6.00;3.97;;;;;;;;;;5017898;28;20046;-83
2023/04/23 10:16:58;;;;;;;6.40;3.88;;;;;;;;;;5017944;28;20125;-80
2023/04/23 10:19:26;;;;;;;6.50;3.72;;;;;;;;;;5016938;28;20424;-80
2023/04/23 10:21:54;;;;;;;6.20;3.63;;;;;;;;;;5016900;28;20511;-81
2023/04/23 10:24:23;;;;;;;6.03;3.92;;;;;;;;;;5018714;28;20057;-80
2023/04/23 10:26:52;;;;;;;5.60;3.78;;;;;;;;;;5020201;28;20348;-81
2023/04/23 10:29:24;;;;;;;5.07;3.47;;;;;;;;;;5020840;28;20042;-81
2023/04/23 10:31:53;;;;;;;6.93;4.63;;;;;;;;;;5019652;28;20081;-81
2023/04/23 10:34:20;;;;;;;5.15;3.53;;;;;;;;;;5017759;28;20061;-80
2023/04/23 10:36:47;;;;;;;6.45;3.75;;;;;;;;;;5017598;28;20046;-81
2023/04/23 10:39:16;;;;;;;6.55;4.03;;;;;;;;;;5019147;28;20132;-81
2023/04/23 10:41:43;;;;;;;5.80;3.40;;;;;;;;;;5017539;28;20077;-79
2023/04/23 10:44:15;;;;;;;5.70;3.72;;;;;;;;;;5016969;28;20509;-80
2023/04/23 10:46:52;;;;;;;6.60;3.47;;;;;;;;;;5018622;28;20042;-80
2023/04/23 10:49:19;;;;;;;7.57;4.57;;;;;;;;;;5018962;28;20449;-80
2023/04/23 10:51:47;;;;;;;5.22;3.25;;;;;;;;;;5020121;28;20566;-80
2023/04/23 10:54:15;;;;;;;8.55;4.35;;;;;;;;;;5018435;28;20401;-80
2023/04/23 10:56:42;;;;;;;5.63;3.75;;;;;;;;;;5017727;28;20050;-80
2023/04/23 10:59:19;;;;;;;5.70;3.55;;;;;;;;;;5017295;28;20085;-79
2023/04/23 11:01:47;;;;;;;6.72;4.20;;;;;;;;;;5024711;28;20128;-79
2023/04/23 11:04:23;;;;;;;6.40;4.50;;;;;;;;;;5037525;28;20041;-81
2023/04/23 11:07:08;;;;;;;6.82;4.20;;;;;;;;;;5038133;28;20073;-81
2023/04/23 11:09:40;;;;;;;5.95;3.88;;;;;;;;;;5038831;28;20052;-80
2023/04/23 11:12:08;;;;;;;6.28;3.85;;;;;;;;;;5040408;28;20049;-80
2023/04/23 11:14:43;;;;;;;5.82;4.00;;;;;;;;;;5037227;28;20049;-78
2023/04/23 11:17:12;;;;;;;5.60;3.60;;;;;;;;;;5036841;28;20049;-80
2023/04/23 11:19:41;;;;;;;6.90;4.40;;;;;;;;;;5040086;28;20049;-80
2023/04/23 11:22:15;;;;;;;6.55;4.10;;;;;;;;;;5039306;28;20473;-79
2023/04/23 11:24:44;;;;;;;5.80;4.00;;;;;;;;;;5046824;28;20546;-80
2023/04/23 11:27:13;;;;;;;5.93;4.22;;;;;;;;;;5047902;28;20053;-79
2023/04/23 11:29:41;;;;;;;5.03;3.63;;;;;;;;;;5044287;28;20113;-81
2023/04/23 11:32:11;;;;;;;5.63;3.40;;;;;;;;;;5045776;28;20084;-81
2023/04/23 11:34:41;;;;;;;5.55;3.70;;;;;;;;;;5042844;28;20064;-79
2023/04/23 11:37:09;;;;;;;;;;;;;;;;;;5038132;28;20068;-78
2023/04/23 11:39:36;;;;;;;6.63;3.83;;;;;;;;;;5040918;28;19967;-79
2023/04/23 11:42:05;;;;;;;5.85;3.60;;;;;;;;;;5043953;28;20053;-79
2023/04/23 11:44:31;;;;;;;6.57;3.55;;;;;;;;;;5048079;28;20048;-81
2023/04/23 11:47:01;;;;;;;4.78;3.25;;;;;;;;;;5047312;28;20052;-80
2023/04/23 11:49:28;;;;;;;7.07;3.55;;;;;;;;;;5043715;28;20046;-80
2023/04/23 11:51:59;;;;;;;4.60;2.97;;;;;;;;;;5042181;28;20144;-79
2023/04/23 11:54:28;;;;;;;3.85;2.80;;;;;;;;;;5041291;28;20045;-79
2023/04/23 11:56:55;;;;;;;6.57;3.60;;;;;;;;;;5042223;28;20084;-80
2023/04/23 11:59:22;;;;;;;5.18;3.15;;;;;;;;;;5043029;28;20481;-78
2023/04/23 12:01:51;;;;;;;4.95;2.80;;;;;;;;;;5037706;28;20073;-81
2023/04/23 12:04:20;;;;;;;4.78;3.42;;;;;;;;;;5025563;28;20048;-80
2023/04/23 12:06:47;;;;;;;4.72;3.13;;;;;;;;;;5025042;28;20125;-80
2023/04/23 12:09:18;;;;;;;5.63;3.60;;;;;;;;;;5025162;28;20074;-81
2023/04/23 12:11:45;;;;;;;4.97;2.90;;;;;;;;;;5025038;28;20088;-80
2023/04/23 12:14:14;;;;;;;4.93;2.90;;;;;;;;;;5023931;28;20482;-80
2023/04/23 12:16:42;;;;;;;4.40;2.85;;;;;;;;;;5023759;28;20390;-79
2023/04/23 12:19:09;;;;;;;4.65;2.80;;;;;;;;;;5023936;28;20156;-81
2023/04/23 12:21:47;;;;;;;4.50;2.88;;;;;;;;;;5024701;28;20049;-82
2023/04/23 12:24:16;;;;;;;5.03;3.85;;;;;;;;;;5025446;28;20497;-80
2023/04/23 12:26:43;;;;;;;4.75;3.78;;;;;;;;;;5022947;28;20584;-81
2023/04/23 12:29:09;;;;;;;5.97;3.47;;;;;;;;;;5022484;28;20058;-82
2023/04/23 12:31:38;;;;;;;4.47;3.00;;;;;;;;;;5022204;28;20145;-79
2023/04/23 12:34:06;;;;;;;5.00;3.50;;;;;;;;;;5022367;28;20046;-79
2023/04/23 12:36:35;;;;;;;4.82;3.42;;;;;;;;;;5022942;28;20113;-79
2023/04/23 12:39:28;;;;;;;5.03;3.00;;;;;;;;;;5023229;28;20108;-80
2023/04/23 12:41:56;;;;;;;5.55;3.50;;;;;;;;;;5022761;28;20057;-80
2023/04/23 12:44:23;;;;;;;6.70;3.70;;;;;;;;;;5022516;28;20054;-80
2023/04/23 12:46:55;;;;;;;5.15;3.13;;;;;;;;;;5022256;28;20041;-80
2023/04/23 12:49:21;;;;;;;5.55;3.13;;;;;;;;;;5023358;28;20448;-80
2023/04/23 12:51:48;;;;;;;5.20;3.38;;;;;;;;;;5023373;28;20096;-81
2023/04/23 12:54:15;;;;;;;4.88;3.15;;;;;;;;;;5019592;28;20054;-80
2023/04/23 12:56:43;;;;;;;5.85;3.30;;;;;;;;;;5021205;28;20081;-81
2023/04/23 12:59:10;;;;;;;6.18;3.58;;;;;;;;;;5020934;28;20114;-80
2023/04/23 13:01:36;;;;;;;5.82;3.40;;;;;;;;;;5020919;28;20050;-80
2023/04/23 13:04:03;;;;;;;5.90;3.90;;;;;;;;;;5020189;28;20077;-80
2023/04/23 13:06:29;;;;;;;5.38;3.40;;;;;;;;;;5018725;28;20106;-80
2023/04/23 13:08:56;;;;;;;4.63;3.33;;;;;;;;;;5018997;28;20073;-80
2023/04/23 13:11:23;;;;;;;6.78;3.67;;;;;;;;;;5019909;28;20539;-80
2023/04/23 13:13:51;;;;;;;5.47;3.40;;;;;;;;;;5020942;28;20050;-79
2023/04/23 13:16:20;;;;;;;5.72;3.45;;;;;;;;;;5021632;28;20046;-81
2023/04/23 13:18:47;;;;;;;4.88;3.40;;;;;;;;;;5025526;28;20109;-80
2023/04/23 13:21:13;;;;;;;7.20;3.80;;;;;;;;;;5028204;28;20136;-79
2023/04/23 13:23:40;;;;;;;7.32;4.32;;;;;;;;;;5021610;28;20577;-79
2023/04/23 13:26:07;;;;;;;8.15;4.50;;;;;;;;;;5023396;28;20053;-78
2023/04/23 13:28:34;;;;;;;6.28;4.20;;;;;;;;;;5019511;28;20401;-79
2023/04/23 13:31:02;;;;;;;6.82;4.30;;;;;;;;;;5018456;28;20129;-79
2023/04/23 13:33:29;;;;;;;4.93;3.42;;;;;;;;;;5020439;28;20042;-80
2023/04/23 13:35:57;;;;;;;6.30;3.72;;;;;;;;;;5018969;28;20078;-80
2023/04/23 13:38:24;;;;;;;6.22;3.70;;;;;;;;;;5017564;28;20049;-80
2023/04/23 13:40:51;;;;;;;5.55;3.50;;;;;;;;;;5019739;28;20149;-79
2023/04/23 13:43:17;;;;;;;7.32;4.00;;;;;;;;;;5019882;28;20046;-80
2023/04/23 13:45:45;;;;;;;7.28;4.18;;;;;;;;;;5019342;28;20509;-80
2023/04/23 13:48:13;;;;;;;7.85;4.60;;;;;;;;;;5018816;28;20607;-80
2023/04/23 13:50:40;;;;;;;5.35;4.15;;;;;;;;;;5018014;28;20553;-79
2023/04/23 13:53:07;;;;;;;5.43;3.60;;;;;;;;;;5016121;28;20050;-80
2023/04/23 13:55:33;;;;;;;6.85;3.90;;;;;;;;;;5017802;28;20119;-81
2023/04/23 13:58:00;;;;;;;6.38;4.15;;;;;;;;;;5018217;28;20085;-81
2023/04/23 14:00:29;;;;;;;6.07;4.20;;;;;;;;;;5018555;28;20046;-80
2023/04/23 14:02:56;;;;;;;6.55;4.78;;;;;;;;;;5017534;28;20096;-78
2023/04/23 14:05:24;;;;;;;6.45;3.75;;;;;;;;;;5016795;28;20076;-80
2023/04/23 14:07:50;;;;;;;6.10;4.43;;;;;;;;;;5015723;28;20129;-81
2023/04/23 14:10:17;;;;;;;6.78;4.00;;;;;;;;;;5015177;28;20133;-79
2023/04/23 14:12:44;;;;;;;8.95;6.95;;;;;;;;;;5014930;28;20493;-78
2023/04/23 14:15:11;;;;;;;7.05;5.07;;;;;;;;;;5015979;28;20048;-78
2023/04/23 14:17:39;;;;;;;6.97;4.47;;;;;;;;;;5016622;28;20048;-79
2023/04/23 14:20:07;;;;;;;6.85;4.60;;;;;;;;;;5017543;28;20046;-78
2023/04/23 14:22:35;;;;;;;5.55;3.92;;;;;;;;;;5016325;28;20549;-79
2023/04/23 14:25:03;;;;;;;6.70;4.35;;;;;;;;;;5016188;28;20100;-80
2023/04/23 14:27:33;;;;;;;6.75;4.55;;;;;;;;;;5016407;28;20081;-80
2023/04/23 14:30:04;;;;;;;6.03;4.35;;;;;;;;;;5018087;28;20062;-79
2023/04/23 14:32:31;;;;;;;5.22;3.58;;;;;;;;;;5016400;28;20045;-79
2023/04/23 14:34:57;;;;;;;5.10;3.33;;;;;;;;;;5016204;28;20052;-80
2023/04/23 14:37:24;;;;;;;5.88;3.80;;;;;;;;;;5016427;28;20118;-80
2023/04/23 14:39:52;;;;;;;5.70;4.07;;;;;;;;;;5016698;28;20105;-79
2023/04/23 14:42:19;;;;;;;5.43;3.83;;;;;;;;;;5017292;28;20159;-81
2023/04/23 14:44:45;;;;;;;5.63;3.35;;;;;;;;;;5016341;28;20104;-79
2023/04/23 14:47:13;;;;;;;4.70;3.42;;;;;;;;;;5016015;28;20050;-79